Hlavní strana
METAR-TAF:

METAR-TAF

Letiště :

Dar es Salaam, Tanzanie

zeměpisná šířka: 06-52S, zeměpisná délka: 039-12E, výška: 55 m

Aktuální stav počasí

Zpráva byla vytvořena před 1 hodinou a 24 minutami, v 03:00 UTC
Bezvětří
Teplota 23°C
Vlhkost vzduchu 94%
Tlak 1012 hPa
Viditelnost 10 km a více
Skoro jasno ve výšce 1000 ft
Oblačno až skoro zataženo ve výšce 1100 ft

METAR: HTDA 010300Z 00000KT 9999 FEW010 BKN011 23/22 Q1012 NOSIG

Čas: 07:24 (04:24 UTC)

Předpověď počasí

Zpráva byla vytvořena před 11 hodinami a 24 minutami, v 17:00 UTC
Předpověď platná od 30 v 18 UTC do 01 v 24 UTC
Východní vítr 10 kt
Viditelnost 10 km a více
Polojasno ve výšce 1300 ft
Změna
od 30 v 22 UTC do 01 v 01 UTC
Severní vítr kt
Dočasný
od 01 v 03 UTC do 01 v 09 UTC
Východojihovýchodní vítr 10 kt
Oblačno až skoro zataženo ve výšce 2300 ft
dešťové přeháňky

TAF: HTDA 301700Z 3018/0124 10010KT 9999 SCT013 BECMG 3022/0101 00000KT TEMPO 0103/0109 12010KT SHRA BKN023

Stav a předpovědi počasí z více než 4 000 letišť (zprávy METAR a TAF).

Červené a žluté tečky na mapě představují dostupné meteorologické stanice.

Když kurzor umístíte na tečku, zobrazí se název stanice.

Pak kliknutím zobrazíte stav a předpověď počasí.

Chcete-li změnit mapu, kliknutím na zelené tlačítko se znaménkem +mapu přiblížíte, kliknutím na zelené tlačítko se znaménkem – mapu oddálíte a kliknutím na zelené šipky přejdete na sousední mapy.


METAR-TAF: